Time;durP1;ratioP1;P1;durP2;ratioP2;P2;SDS_P1;SDS_P2;PMS_P1;PMS_P2;Temp;Humidity;BMP_temperature;BMP_pressure;BME280_temperature;BME280_humidity;BME280_pressure;Samples;Min_cycle;Max_cycle;Signal;HPM_P1;HPM_P2
2024/01/08 00:03:53;;;;;;;;;;;16.40;58.10;;;;;;10229555;28;94652;-72
2024/01/08 00:08:55;;;;;;;;;;;16.30;57.70;;;;;;10241134;28;92629;-63
2024/01/08 00:13:56;;;;;;;;;;;16.30;57.50;;;;;;10234790;28;93017;-62
2024/01/08 00:18:59;;;;;;;;;;;16.30;57.10;;;;;;10205902;28;94428;-62
2024/01/08 00:24:00;;;;;;;;;;;16.20;56.80;;;;;;10215265;28;93119;-63
2024/01/08 00:29:02;;;;;;;;;;;16.30;56.70;;;;;;10226731;28;95855;-62
2024/01/08 00:34:04;;;;;;;;;;;16.30;56.40;;;;;;10224737;28;93327;-61
2024/01/08 00:39:09;;;;;;;;;;;16.20;56.30;;;;;;10232560;28;93227;-62
2024/01/08 00:44:10;;;;;;;;;;;16.20;56.00;;;;;;10232323;28;94421;-61
2024/01/08 00:49:12;;;;;;;;;;;16.20;56.00;;;;;;10213918;28;94555;-62
2024/01/08 00:54:14;;;;;;;;;;;16.10;56.60;;;;;;10222431;28;94596;-62
2024/01/08 00:59:16;;;;;;;;;;;16.10;56.80;;;;;;10233452;28;93454;-62
2024/01/08 01:04:18;;;;;;;;;;;16.10;56.60;;;;;;10214965;28;92604;-62
2024/01/08 01:09:20;;;;;;;;;;;16.10;56.30;;;;;;10229203;28;92718;-62
2024/01/08 01:14:22;;;;;;;;;;;16.10;56.00;;;;;;10228721;28;94956;-62
2024/01/08 01:19:24;;;;;;;;;;;16.10;55.70;;;;;;10226529;28;97153;-62
2024/01/08 01:24:26;;;;;;;;;;;16.10;55.20;;;;;;10224320;28;94457;-62
2024/01/08 01:29:28;;;;;;;;;;;16.10;55.00;;;;;;10233969;28;93493;-62
2024/01/08 01:34:30;;;;;;;;;;;16.10;55.00;;;;;;10224029;28;92511;-62
2024/01/08 01:39:32;;;;;;;;;;;16.10;54.70;;;;;;10236324;28;93842;-62
2024/01/08 01:44:35;;;;;;;;;;;16.00;54.60;;;;;;10216698;28;93407;-62
2024/01/08 01:49:39;;;;;;;;;;;16.00;55.00;;;;;;10237329;28;94506;-62
2024/01/08 01:54:41;;;;;;;;;;;15.90;55.50;;;;;;10237701;28;92690;-63
2024/01/08 01:59:43;;;;;;;;;;;15.90;55.20;;;;;;10210813;28;94489;-62
2024/01/08 02:04:45;;;;;;;;;;;15.90;54.90;;;;;;10495955;22;95213;-62
2024/01/08 02:09:48;;;;;;;;;;;15.90;54.90;;;;;;10152487;28;96427;-61
2024/01/08 02:14:50;;;;;;;;;;;15.80;54.80;;;;;;10134282;28;94601;-62
2024/01/08 02:19:52;;;;;;;;;;;15.90;54.60;;;;;;10143956;28;93863;-62
2024/01/08 02:24:54;;;;;;;;;;;15.90;54.30;;;;;;10149963;28;94949;-62
2024/01/08 02:29:56;;;;;;;;;;;15.90;54.30;;;;;;10149524;28;94028;-62
2024/01/08 02:35:00;;;;;;;;;;;15.80;54.10;;;;;;10161239;28;94269;-62
2024/01/08 02:40:02;;;;;;;;;;;15.80;54.30;;;;;;10159636;28;95819;-62
2024/01/08 02:45:04;;;;;;;;;;;15.80;54.80;;;;;;10149242;28;94069;-61
2024/01/08 02:50:06;;;;;;;;;;;15.80;54.80;;;;;;10151384;28;94437;-62
2024/01/08 02:55:08;;;;;;;;;;;15.80;54.70;;;;;;10159531;28;94243;-62
2024/01/08 03:00:10;;;;;;;;;;;15.80;54.30;;;;;;10128710;28;95807;-61
2024/01/08 03:05:12;;;;;;;;;;;15.80;54.00;;;;;;10141301;28;93908;-62
2024/01/08 03:10:14;;;;;;;;;;;15.90;53.90;;;;;;10152887;28;94953;-62
2024/01/08 03:15:16;;;;;;;;;;;15.90;53.70;;;;;;10159420;28;94524;-71
2024/01/08 03:20:22;;;;;;;;;;;15.80;53.40;;;;;;10151823;28;94956;-62
2024/01/08 03:25:24;;;;;;;;;;;15.80;53.30;;;;;;10144703;28;94559;-62
2024/01/08 03:30:26;;;;;;;;;;;15.80;53.20;;;;;;10142075;28;94505;-62
2024/01/08 03:35:28;;;;;;;;;;;15.80;53.30;;;;;;10154944;28;93968;-61
2024/01/08 03:40:30;;;;;;;;;;;15.70;53.90;;;;;;10153725;28;98002;-61
2024/01/08 03:45:31;;;;;;;;;;;15.70;54.10;;;;;;10149126;28;94592;-61
2024/01/08 03:50:35;;;;;;;;;;;15.70;54.10;;;;;;10143813;28;96838;-62
2024/01/08 03:55:37;;;;;;;;;;;15.70;54.00;;;;;;10147422;28;93982;-62
2024/01/08 04:00:39;;;;;;;;;;;15.70;53.80;;;;;;10139717;28;92834;-62
2024/01/08 04:05:41;;;;;;;;;;;15.70;53.60;;;;;;10137231;28;93505;-62
2024/01/08 04:10:43;;;;;;;;;;;15.70;53.50;;;;;;10147478;28;93986;-62
2024/01/08 04:15:45;;;;;;;;;;;15.70;53.30;;;;;;10154698;28;93388;-62
2024/01/08 04:20:49;;;;;;;;;;;15.70;53.00;;;;;;10106132;28;93828;-62
2024/01/08 04:25:51;;;;;;;;;;;15.70;52.70;;;;;;10152879;28;92703;-62
2024/01/08 04:30:53;;;;;;;;;;;15.70;52.80;;;;;;10159327;28;94443;-62
2024/01/08 04:35:55;;;;;;;;;;;15.70;53.30;;;;;;10177563;28;92515;-61
2024/01/08 04:40:57;;;;;;;;;;;15.60;53.80;;;;;;10154924;28;96925;-62
2024/01/08 04:45:59;;;;;;;;;;;15.60;54.10;;;;;;10162657;28;93604;-62
2024/01/08 04:51:01;;;;;;;;;;;15.70;54.20;;;;;;10152920;28;93524;-68
2024/01/08 04:56:03;;;;;;;;;;;15.70;54.10;;;;;;10170377;28;93964;-62
2024/01/08 05:01:05;;;;;;;;;;;15.80;54.00;;;;;;10135808;28;93472;-70
2024/01/08 05:06:07;;;;;;;;;;;15.90;53.90;;;;;;10144806;28;94040;-62
2024/01/08 05:11:10;;;;;;;;;;;15.90;53.90;;;;;;10158922;28;93247;-61
2024/01/08 05:16:11;;;;;;;;;;;15.90;53.90;;;;;;10162896;28;93591;-62
2024/01/08 05:21:14;;;;;;;;;;;15.90;53.90;;;;;;10158997;28;94371;-62
2024/01/08 05:26:16;;;;;;;;;;;15.90;53.90;;;;;;10161734;28;94717;-63
2024/01/08 05:31:18;;;;;;;;;;;15.90;53.90;;;;;;10163526;28;97184;-62
2024/01/08 05:36:20;;;;;;;;;;;15.80;53.90;;;;;;10164094;28;94545;-62
2024/01/08 05:41:24;;;;;;;;;;;15.80;54.00;;;;;;10148312;28;94253;-62
2024/01/08 05:46:26;;;;;;;;;;;15.80;54.20;;;;;;10152275;28;94403;-62
2024/01/08 05:51:28;;;;;;;;;;;15.80;54.20;;;;;;10149182;28;93582;-61
2024/01/08 05:56:31;;;;;;;;;;;16.00;54.20;;;;;;10156466;28;93640;-62
2024/01/08 06:01:34;;;;;;;;;;;16.20;53.70;;;;;;10156827;28;93406;-61
2024/01/08 06:06:36;;;;;;;;;;;16.50;53.80;;;;;;10142175;28;92672;-62
2024/01/08 06:11:38;;;;;;;;;;;16.60;54.10;;;;;;10143414;28;94614;-61
2024/01/08 06:16:40;;;;;;;;;;;16.70;53.90;;;;;;10162262;28;92732;-62
2024/01/08 06:21:41;;;;;;;;;;;16.90;54.20;;;;;;10154667;28;96280;-62
2024/01/08 06:26:43;;;;;;;;;;;17.10;54.00;;;;;;10158312;28;94689;-62
2024/01/08 06:31:45;;;;;;;;;;;17.20;54.00;;;;;;10152107;28;94071;-62
2024/01/08 06:36:47;;;;;;;;;;;17.20;53.60;;;;;;10159697;28;94353;-62
2024/01/08 06:41:49;;;;;;;;;;;17.10;53.40;;;;;;10155991;28;93793;-62
2024/01/08 06:46:51;;;;;;;;;;;17.10;53.40;;;;;;10165150;28;93364;-63
2024/01/08 06:52:04;;;;;;;;;;;16.90;53.40;;;;;;10151769;28;94781;-63
2024/01/08 06:57:06;;;;;;;;;;;16.90;53.50;;;;;;10159463;28;91862;-73
2024/01/08 07:02:08;;;;;;;;;;;16.80;53.60;;;;;;10160428;28;94250;-62
2024/01/08 07:07:09;;;;;;;;;;;16.70;53.60;;;;;;10162483;28;92850;-65
2024/01/08 07:12:11;;;;;;;;;;;16.60;53.60;;;;;;10143526;28;96929;-63
2024/01/08 07:17:13;;;;;;;;;;;16.50;53.70;;;;;;10165256;28;93561;-63
2024/01/08 07:22:15;;;;;;;;;;;16.50;54.00;;;;;;10153643;28;93883;-63
2024/01/08 07:27:16;;;;;;;;;;;16.40;54.20;;;;;;10152580;28;93816;-63
2024/01/08 07:32:18;;;;;;;;;;;16.40;54.30;;;;;;10153690;28;94479;-63
2024/01/08 07:37:20;;;;;;;;;;;16.30;54.50;;;;;;10159010;28;92675;-63
2024/01/08 07:42:22;;;;;;;;;;;16.20;54.40;;;;;;10154836;28;94657;-63
2024/01/08 07:47:24;;;;;;;;;;;16.20;54.40;;;;;;10135463;28;93865;-63
2024/01/08 07:52:26;;;;;;;;;;;16.10;54.40;;;;;;10157692;28;93785;-63
2024/01/08 07:57:39;;;;;;;;;;;16.00;54.30;;;;;;10142921;28;93281;-63
2024/01/08 08:02:41;;;;;;;;;;;16.00;54.30;;;;;;10141767;28;95805;-63
2024/01/08 08:07:43;;;;;;;;;;;15.90;54.40;;;;;;10130797;28;94010;-63
2024/01/08 08:12:45;;;;;;;;;;;15.90;54.40;;;;;;10150434;28;94764;-63
2024/01/08 08:17:50;;;;;;;;;;;15.80;54.30;;;;;;10149619;28;113334;-62
2024/01/08 08:22:52;;;;;;;;;;;15.70;54.30;;;;;;10145848;28;94521;-62
2024/01/08 08:27:54;;;;;;;;;;;15.70;54.50;;;;;;10158016;28;95064;-62
2024/01/08 08:32:58;;;;;;;;;;;15.70;54.40;;;;;;10152481;28;93787;-62
2024/01/08 08:38:01;;;;;;;;;;;15.60;54.50;;;;;;10152446;28;93654;-62
2024/01/08 08:43:02;;;;;;;;;;;15.60;54.50;;;;;;10152674;28;93482;-62
2024/01/08 08:48:04;;;;;;;;;;;15.50;54.40;;;;;;10139366;28;97114;-62
2024/01/08 08:53:06;;;;;;;;;;;15.50;54.70;;;;;;10135475;28;95893;-63
2024/01/08 08:58:09;;;;;;;;;;;15.40;54.70;;;;;;10149944;28;93475;-62
2024/01/08 09:03:11;;;;;;;;;;;15.40;55.10;;;;;;10141264;28;93773;-63
2024/01/08 09:08:12;;;;;;;;;;;15.40;55.20;;;;;;10141273;28;93757;-62
2024/01/08 09:13:14;;;;;;;;;;;15.50;55.40;;;;;;10150167;28;94200;-62
2024/01/08 09:18:18;;;;;;;;;;;15.50;55.50;;;;;;10154931;28;94480;-62
2024/01/08 09:23:20;;;;;;;;;;;15.60;55.70;;;;;;10156978;28;93945;-62
2024/01/08 09:28:22;;;;;;;;;;;15.70;55.90;;;;;;10144240;28;92339;-62
2024/01/08 09:33:24;;;;;;;;;;;16.10;56.00;;;;;;10161760;28;94386;-61
2024/01/08 09:38:25;;;;;;;;;;;16.30;55.30;;;;;;10132165;28;94132;-62
2024/01/08 09:43:28;;;;;;;;;;;16.50;55.10;;;;;;10156383;28;97135;-63
2024/01/08 09:48:30;;;;;;;;;;;16.70;54.70;;;;;;10152230;28;94671;-62
2024/01/08 09:53:32;;;;;;;;;;;16.90;54.50;;;;;;10138597;28;94400;-62
2024/01/08 09:58:34;;;;;;;;;;;17.10;54.30;;;;;;10154240;28;94523;-63
2024/01/08 10:03:36;;;;;;;;;;;17.30;54.20;;;;;;10161539;28;94066;-62
2024/01/08 10:08:38;;;;;;;;;;;17.40;53.90;;;;;;10149116;28;94406;-62
2024/01/08 10:13:40;;;;;;;;;;;17.60;53.80;;;;;;10160261;28;94113;-63
2024/01/08 10:18:44;;;;;;;;;;;17.70;53.50;;;;;;10154292;28;94078;-62
2024/01/08 10:23:46;;;;;;;;;;;17.70;53.40;;;;;;10153414;28;93915;-62
2024/01/08 10:28:49;;;;;;;;;;;17.90;53.40;;;;;;10156591;28;94791;-62
2024/01/08 10:33:51;;;;;;;;;;;18.00;53.30;;;;;;10153346;28;95815;-62
2024/01/08 10:38:54;;;;;;;;;;;18.00;53.20;;;;;;10155530;28;93580;-62
2024/01/08 10:43:56;;;;;;;;;;;18.00;53.10;;;;;;10163162;28;93488;-62
2024/01/08 10:48:59;;;;;;;;;;;18.00;53.10;;;;;;10157819;28;94498;-62
2024/01/08 10:54:01;;;;;;;;;;;17.90;53.20;;;;;;10158758;28;95231;-62
2024/01/08 10:59:08;;;;;;;;;;;17.80;53.20;;;;;;10160868;28;93304;-62
2024/01/08 11:04:10;;;;;;;;;;;17.90;53.20;;;;;;10152679;28;93642;-62
2024/01/08 11:09:25;;;;;;;;;;;17.90;53.00;;;;;;10148611;28;93289;-63
2024/01/08 11:14:28;;;;;;;;;;;18.10;53.00;;;;;;10149875;28;94412;-62
2024/01/08 11:19:30;;;;;;;;;;;18.10;52.80;;;;;;10159946;28;93549;-62
2024/01/08 11:24:32;;;;;;;;;;;18.20;52.80;;;;;;10155154;28;96174;-62
2024/01/08 11:29:34;;;;;;;;;;;18.20;52.70;;;;;;10163909;28;94393;-62
2024/01/08 11:34:39;;;;;;;;;;;18.10;52.70;;;;;;10157052;28;93617;-62
2024/01/08 11:39:41;;;;;;;;;;;18.00;52.70;;;;;;10158021;28;93470;-62
2024/01/08 11:44:43;;;;;;;;;;;17.90;52.80;;;;;;10163233;28;94551;-62
2024/01/08 11:49:45;;;;;;;;;;;17.80;52.90;;;;;;10149609;28;94249;-62
2024/01/08 11:54:48;;;;;;;;;;;17.60;53.00;;;;;;10148522;28;93464;-62
2024/01/08 11:59:50;;;;;;;;;;;17.50;53.10;;;;;;10143675;28;92945;-61
2024/01/08 12:04:59;;;;;;;;;;;17.40;53.10;;;;;;10148058;28;94470;-62
2024/01/08 12:10:06;;;;;;;;;;;17.20;53.30;;;;;;10150268;28;93378;-62
2024/01/08 12:15:08;;;;;;;;;;;17.10;53.30;;;;;;10150089;28;95862;-62
2024/01/08 12:20:09;;;;;;;;;;;17.10;53.50;;;;;;10149584;28;93486;-62
2024/01/08 12:25:12;;;;;;;;;;;16.90;53.50;;;;;;10155759;28;94438;-62
2024/01/08 12:30:14;;;;;;;;;;;16.80;53.60;;;;;;10149995;28;93687;-62
2024/01/08 12:35:17;;;;;;;;;;;16.80;54.20;;;;;;10135635;28;93946;-62
2024/01/08 12:40:19;;;;;;;;;;;16.70;54.40;;;;;;10157815;28;94518;-62
2024/01/08 12:45:21;;;;;;;;;;;16.70;54.60;;;;;;10159831;28;93456;-62
2024/01/08 12:50:23;;;;;;;;;;;16.60;54.50;;;;;;10148843;28;93643;-61
2024/01/08 12:55:25;;;;;;;;;;;16.50;54.50;;;;;;10174483;28;94423;-61
2024/01/08 13:00:28;;;;;;;;;;;16.50;54.70;;;;;;10159088;28;94719;-63
2024/01/08 13:05:30;;;;;;;;;;;16.50;54.70;;;;;;10167069;28;97019;-61
2024/01/08 13:10:32;;;;;;;;;;;16.40;54.80;;;;;;10161715;28;94736;-61
2024/01/08 13:15:35;;;;;;;;;;;16.40;54.90;;;;;;10161408;28;94763;-61
2024/01/08 13:20:37;;;;;;;;;;;16.30;55.00;;;;;;10161310;28;94452;-61
2024/01/08 13:25:38;;;;;;;;;;;16.30;55.10;;;;;;10158008;28;93656;-61
2024/01/08 13:30:42;;;;;;;;;;;16.20;55.00;;;;;;10160071;28;94399;-61
2024/01/08 13:35:44;;;;;;;;;;;16.20;55.10;;;;;;10162927;28;93559;-62
2024/01/08 13:40:46;;;;;;;;;;;16.10;55.10;;;;;;10155506;28;92628;-61
2024/01/08 13:45:48;;;;;;;;;;;16.10;55.00;;;;;;10158042;28;94885;-61
2024/01/08 13:50:51;;;;;;;;;;;16.00;55.30;;;;;;10163738;28;93418;-61
2024/01/08 13:55:54;;;;;;;;;;;16.00;55.30;;;;;;10135571;28;96404;-61
2024/01/08 14:00:56;;;;;;;;;;;15.90;55.60;;;;;;10146331;28;94362;-61
2024/01/08 14:05:57;;;;;;;;;;;15.80;55.50;;;;;;10150696;28;94535;-62
2024/01/08 14:11:00;;;;;;;;;;;15.80;55.40;;;;;;10160299;28;94642;-60
2024/01/08 14:16:02;;;;;;;;;;;15.80;55.70;;;;;;10158499;28;94548;-61
2024/01/08 14:21:05;;;;;;;;;;;15.70;55.70;;;;;;10161694;28;93564;-61
2024/01/08 14:26:07;;;;;;;;;;;15.60;55.80;;;;;;10169347;28;93533;-61
2024/01/08 14:31:10;;;;;;;;;;;15.60;55.90;;;;;;10151707;28;92659;-61
2024/01/08 14:36:12;;;;;;;;;;;15.60;56.00;;;;;;10162558;28;93384;-62
2024/01/08 14:41:14;;;;;;;;;;;15.50;55.90;;;;;;10175282;28;94208;-61
2024/01/08 14:46:15;;;;;;;;;;;15.50;55.90;;;;;;10143052;28;97078;-61
2024/01/08 14:51:18;;;;;;;;;;;15.50;55.90;;;;;;10174513;28;95333;-61
2024/01/08 14:56:20;;;;;;;;;;;15.50;55.80;;;;;;10145725;28;94055;-61
2024/01/08 15:01:22;;;;;;;;;;;15.40;55.70;;;;;;10167717;28;93224;-61
2024/01/08 15:06:24;;;;;;;;;;;15.40;55.70;;;;;;10151294;28;94468;-61
2024/01/08 15:11:27;;;;;;;;;;;15.40;55.80;;;;;;10135454;28;94553;-61
2024/01/08 15:16:28;;;;;;;;;;;15.40;55.60;;;;;;10162610;28;94738;-62
2024/01/08 15:21:30;;;;;;;;;;;15.30;55.50;;;;;;10166330;28;92080;-62
2024/01/08 15:26:32;;;;;;;;;;;15.30;55.40;;;;;;10153521;28;94359;-62
2024/01/08 15:31:34;;;;;;;;;;;15.30;55.30;;;;;;10147074;28;94152;-62
2024/01/08 15:36:35;;;;;;;;;;;15.30;55.10;;;;;;10155471;28;97865;-61
2024/01/08 15:41:37;;;;;;;;;;;15.30;55.10;;;;;;10150793;28;94456;-61
2024/01/08 15:46:41;;;;;;;;;;;15.30;54.90;;;;;;10152716;28;94141;-61
2024/01/08 15:51:43;;;;;;;;;;;15.30;55.00;;;;;;10150918;28;93821;-61
2024/01/08 15:56:45;;;;;;;;;;;15.20;54.90;;;;;;10152336;28;94420;-61
2024/01/08 16:01:47;;;;;;;;;;;15.20;54.80;;;;;;10163711;28;94611;-61
2024/01/08 16:06:50;;;;;;;;;;;15.20;54.70;;;;;;10148219;28;93454;-61
2024/01/08 16:11:52;;;;;;;;;;;15.30;54.60;;;;;;10142373;28;92810;-61
2024/01/08 16:16:54;;;;;;;;;;;15.30;54.50;;;;;;10156540;28;94225;-61
2024/01/08 16:21:56;;;;;;;;;;;15.30;54.30;;;;;;10134623;28;93451;-61
2024/01/08 16:26:59;;;;;;;;;;;15.30;54.20;;;;;;10160484;28;95887;-60
2024/01/08 16:32:02;;;;;;;;;;;15.30;54.20;;;;;;10153208;28;93607;-61
2024/01/08 16:37:04;;;;;;;;;;;15.20;54.10;;;;;;10152782;28;94188;-62
2024/01/08 16:42:05;;;;;;;;;;;15.20;54.10;;;;;;10159018;28;93986;-62
2024/01/08 16:47:07;;;;;;;;;;;15.20;54.00;;;;;;10159261;28;93810;-62
2024/01/08 16:52:09;;;;;;;;;;;15.20;54.50;;;;;;10153096;28;95571;-63
2024/01/08 16:57:12;;;;;;;;;;;15.40;54.50;;;;;;10160178;28;93673;-62
2024/01/08 17:02:13;;;;;;;;;;;15.60;54.60;;;;;;10152593;28;92449;-63
2024/01/08 17:07:15;;;;;;;;;;;15.80;57.70;;;;;;10154346;28;94507;-63
2024/01/08 17:12:17;;;;;;;;;;;16.10;56.70;;;;;;10127372;28;93492;-61
2024/01/08 17:17:19;;;;;;;;;;;16.40;58.50;;;;;;10141148;28;96816;-62
2024/01/08 17:22:21;;;;;;;;;;;16.70;56.10;;;;;;10145963;28;93316;-62
2024/01/08 17:27:23;;;;;;;;;;;17.00;55.20;;;;;;10159422;28;93821;-62
2024/01/08 17:32:25;;;;;;;;;;;17.30;54.60;;;;;;10157461;28;94438;-62
2024/01/08 17:37:30;;;;;;;;;;;17.60;54.00;;;;;;10139422;28;93922;-62
2024/01/08 17:42:35;;;;;;;;;;;17.70;53.50;;;;;;10151091;28;94451;-63
2024/01/08 17:47:37;;;;;;;;;;;17.90;53.20;;;;;;10153914;28;93529;-62
2024/01/08 17:52:40;;;;;;;;;;;18.10;52.90;;;;;;10159703;28;92173;-63
2024/01/08 17:57:41;;;;;;;;;;;18.30;52.60;;;;;;10154943;28;93427;-61
2024/01/08 18:02:43;;;;;;;;;;;18.30;52.20;;;;;;10149051;28;95111;-61
2024/01/08 18:07:45;;;;;;;;;;;18.20;52.10;;;;;;10148999;28;96348;-61
2024/01/08 18:12:47;;;;;;;;;;;18.10;52.20;;;;;;10162305;28;98005;-61
2024/01/08 18:17:50;;;;;;;;;;;18.00;52.50;;;;;;10155312;28;94467;-61
2024/01/08 18:22:53;;;;;;;;;;;17.90;52.60;;;;;;10143667;28;94425;-63
2024/01/08 18:27:54;;;;;;;;;;;18.00;52.70;;;;;;10152110;28;94828;-63
2024/01/08 18:32:56;;;;;;;;;;;18.00;52.50;;;;;;10165748;28;93643;-62
2024/01/08 18:37:59;;;;;;;;;;;18.00;52.50;;;;;;10156132;28;93470;-61
2024/01/08 18:43:02;;;;;;;;;;;17.90;52.50;;;;;;10170933;28;93184;-62
2024/01/08 18:48:04;;;;;;;;;;;17.80;52.70;;;;;;10170073;28;94606;-61
2024/01/08 18:53:06;;;;;;;;;;;17.80;52.60;;;;;;10164424;28;93460;-70
2024/01/08 18:58:09;;;;;;;;;;;17.90;52.50;;;;;;10161237;28;97082;-62
2024/01/08 19:03:10;;;;;;;;;;;18.00;52.20;;;;;;10146481;28;93797;-62
2024/01/08 19:08:13;;;;;;;;;;;18.10;52.00;;;;;;10138952;28;94413;-62
2024/01/08 19:13:14;;;;;;;;;;;18.20;51.80;;;;;;10160414;28;93464;-62
2024/01/08 19:18:16;;;;;;;;;;;18.10;51.80;;;;;;10152053;28;92965;-62
2024/01/08 19:23:21;;;;;;;;;;;18.00;51.90;;;;;;10136774;28;94695;-62
2024/01/08 19:28:24;;;;;;;;;;;18.00;52.00;;;;;;10140842;28;94514;-62
2024/01/08 19:33:26;;;;;;;;;;;18.10;52.00;;;;;;10137070;28;94004;-62
2024/01/08 19:38:28;;;;;;;;;;;18.20;51.70;;;;;;10136770;28;94013;-61
2024/01/08 19:43:30;;;;;;;;;;;18.20;51.40;;;;;;10157895;28;93257;-61
2024/01/08 19:48:31;;;;;;;;;;;18.20;51.30;;;;;;10146507;28;97153;-61
2024/01/08 19:53:34;;;;;;;;;;;18.20;51.50;;;;;;10159240;28;93039;-61
2024/01/08 19:58:36;;;;;;;;;;;18.10;51.50;;;;;;10154932;28;93675;-61
2024/01/08 20:03:38;;;;;;;;;;;18.20;51.50;;;;;;10134053;28;93396;-61
2024/01/08 20:08:42;;;;;;;;;;;18.20;51.50;;;;;;10156120;28;93764;-61
2024/01/08 20:13:44;;;;;;;;;;;18.30;51.20;;;;;;10144325;28;92541;-62
2024/01/08 20:18:46;;;;;;;;;;;18.20;50.90;;;;;;10150300;28;94388;-61
2024/01/08 20:23:50;;;;;;;;;;;18.20;51.00;;;;;;10152089;28;92729;-61
2024/01/08 20:28:52;;;;;;;;;;;18.10;51.00;;;;;;10149116;28;92858;-62
2024/01/08 20:33:54;;;;;;;;;;;18.20;51.00;;;;;;10154701;28;94450;-61
2024/01/08 20:38:56;;;;;;;;;;;18.30;50.90;;;;;;10125761;28;96184;-62
2024/01/08 20:43:58;;;;;;;;;;;18.30;50.50;;;;;;10161148;28;94510;-61
2024/01/08 20:49:00;;;;;;;;;;;18.30;50.90;;;;;;10155549;28;94658;-60
2024/01/08 20:54:03;;;;;;;;;;;18.20;51.80;;;;;;10154946;28;93547;-60
2024/01/08 20:59:05;;;;;;;;;;;18.20;51.30;;;;;;10141314;28;93558;-61
2024/01/08 21:04:09;;;;;;;;;;;18.00;51.30;;;;;;10157123;28;93420;-61
2024/01/08 21:09:10;;;;;;;;;;;17.90;51.40;;;;;;10152902;28;94453;-62
2024/01/08 21:14:12;;;;;;;;;;;17.80;51.60;;;;;;10161346;28;93871;-62
2024/01/08 21:19:14;;;;;;;;;;;17.60;51.70;;;;;;10161315;28;94306;-63
2024/01/08 21:24:16;;;;;;;;;;;17.50;51.90;;;;;;10144032;28;93420;-61
2024/01/08 21:29:22;;;;;;;;;;;17.40;52.10;;;;;;10150089;28;96591;-61
2024/01/08 21:34:24;;;;;;;;;;;17.30;52.40;;;;;;10156173;28;93611;-61
2024/01/08 21:39:26;;;;;;;;;;;17.20;52.60;;;;;;10149580;28;93443;-60
2024/01/08 21:44:28;;;;;;;;;;;17.10;52.80;;;;;;10151673;28;93661;-62
2024/01/08 21:49:29;;;;;;;;;;;17.00;53.00;;;;;;10147617;28;94153;-62
2024/01/08 21:54:31;;;;;;;;;;;16.80;53.10;;;;;;10151053;28;93610;-61
2024/01/08 21:59:33;;;;;;;;;;;16.80;53.40;;;;;;10152757;28;94409;-60
2024/01/08 22:04:35;;;;;;;;;;;16.70;53.50;;;;;;10155390;28;92402;-61
2024/01/08 22:09:37;;;;;;;;;;;16.60;53.60;;;;;;10161444;28;94420;-70
2024/01/08 22:14:38;;;;;;;;;;;16.60;53.80;;;;;;10162186;28;93812;-60
2024/01/08 22:19:40;;;;;;;;;;;16.50;54.00;;;;;;10145332;28;96941;-61
2024/01/08 22:24:43;;;;;;;;;;;16.40;54.20;;;;;;10159008;28;93539;-61
2024/01/08 22:29:45;;;;;;;;;;;16.30;54.00;;;;;;10145656;28;93510;-61
2024/01/08 22:34:47;;;;;;;;;;;16.30;54.20;;;;;;10165896;28;93733;-61
2024/01/08 22:40:02;;;;;;;;;;;16.20;54.20;;;;;;10177797;28;92786;-61
2024/01/08 22:45:04;;;;;;;;;;;16.10;54.10;;;;;;10165991;28;93350;-61
2024/01/08 22:50:06;;;;;;;;;;;16.10;54.20;;;;;;10143535;28;93641;-60
2024/01/08 22:55:08;;;;;;;;;;;16.10;54.30;;;;;;10154068;28;92848;-61
2024/01/08 23:00:12;;;;;;;;;;;16.00;54.20;;;;;;10131337;28;93829;-61
2024/01/08 23:05:14;;;;;;;;;;;16.00;54.30;;;;;;10145078;28;94433;-61
2024/01/08 23:10:16;;;;;;;;;;;15.90;54.50;;;;;;10142366;28;95903;-61
2024/01/08 23:15:18;;;;;;;;;;;15.80;54.30;;;;;;10139153;28;94495;-60
2024/01/08 23:20:20;;;;;;;;;;;15.80;54.10;;;;;;10139544;28;93481;-60
2024/01/08 23:25:24;;;;;;;;;;;15.90;53.90;;;;;;10153261;28;94431;-61
2024/01/08 23:30:26;;;;;;;;;;;15.90;53.50;;;;;;10139118;28;94411;-61
2024/01/08 23:35:28;;;;;;;;;;;16.00;53.30;;;;;;10145217;28;94485;-61
2024/01/08 23:40:29;;;;;;;;;;;16.00;53.00;;;;;;10161228;28;94538;-61
2024/01/08 23:45:31;;;;;;;;;;;16.00;52.80;;;;;;10132212;28;93703;-62
2024/01/08 23:50:33;;;;;;;;;;;15.90;52.60;;;;;;10141573;28;94543;-62
2024/01/08 23:55:35;;;;;;;;;;;15.90;52.50;;;;;;10151270;28;94634;-73
